sensor_id;sensor_type;location;lat;lon;timestamp;temperature;humidity
10722;DHT22;5412;59.450;18.124;2022-12-24T00:01:22;-2.70;99.90
10722;DHT22;5412;59.450;18.124;2022-12-24T00:03:48;-2.70;99.90
10722;DHT22;5412;59.450;18.124;2022-12-24T00:06:21;-2.70;99.90
10722;DHT22;5412;59.450;18.124;2022-12-24T00:08:47;-2.60;99.90
10722;DHT22;5412;59.450;18.124;2022-12-24T00:11:13;-2.70;99.90
10722;DHT22;5412;59.450;18.124;2022-12-24T00:13:38;-2.80;99.90
10722;DHT22;5412;59.450;18.124;2022-12-24T00:16:05;-2.70;99.90
10722;DHT22;5412;59.450;18.124;2022-12-24T00:18:31;-2.80;99.90
10722;DHT22;5412;59.450;18.124;2022-12-24T00:20:57;-2.80;99.90
10722;DHT22;5412;59.450;18.124;2022-12-24T00:23:22;-2.80;99.90
10722;DHT22;5412;59.450;18.124;2022-12-24T00:25:48;-2.90;99.90
10722;DHT22;5412;59.450;18.124;2022-12-24T00:28:14;-2.70;99.90
10722;DHT22;5412;59.450;18.124;2022-12-24T00:30:41;-2.70;99.90
10722;DHT22;5412;59.450;18.124;2022-12-24T00:33:07;-2.70;99.90
10722;DHT22;5412;59.450;18.124;2022-12-24T00:35:34;-2.80;99.90
10722;DHT22;5412;59.450;18.124;2022-12-24T00:38:00;-2.70;99.90
10722;DHT22;5412;59.450;18.124;2022-12-24T00:40:25;-2.90;99.90
10722;DHT22;5412;59.450;18.124;2022-12-24T00:42:51;-2.90;99.90
10722;DHT22;5412;59.450;18.124;2022-12-24T00:45:17;-2.90;99.90
10722;DHT22;5412;59.450;18.124;2022-12-24T00:47:43;-3.00;99.90
10722;DHT22;5412;59.450;18.124;2022-12-24T00:50:08;-3.00;99.90
10722;DHT22;5412;59.450;18.124;2022-12-24T00:52:34;-2.90;99.90
10722;DHT22;5412;59.450;18.124;2022-12-24T00:55:00;-2.90;99.90
10722;DHT22;5412;59.450;18.124;2022-12-24T00:57:26;-3.00;99.90
10722;DHT22;5412;59.450;18.124;2022-12-24T00:59:51;-3.00;99.90
10722;DHT22;5412;59.450;18.124;2022-12-24T01:02:17;-3.00;99.90
10722;DHT22;5412;59.450;18.124;2022-12-24T01:04:43;-2.90;99.90
10722;DHT22;5412;59.450;18.124;2022-12-24T01:07:27;-2.90;99.90
10722;DHT22;5412;59.450;18.124;2022-12-24T01:09:53;-2.80;99.90
10722;DHT22;5412;59.450;18.124;2022-12-24T01:12:19;-2.90;99.90
10722;DHT22;5412;59.450;18.124;2022-12-24T01:14:45;-2.80;99.90
10722;DHT22;5412;59.450;18.124;2022-12-24T01:17:10;-2.80;99.90
10722;DHT22;5412;59.450;18.124;2022-12-24T01:19:36;-2.80;99.90
10722;DHT22;5412;59.450;18.124;2022-12-24T01:22:02;-2.80;99.90
10722;DHT22;5412;59.450;18.124;2022-12-24T01:24:28;-2.70;99.90
10722;DHT22;5412;59.450;18.124;2022-12-24T01:26:54;-2.80;99.90
10722;DHT22;5412;59.450;18.124;2022-12-24T01:29:20;-2.80;99.90
10722;DHT22;5412;59.450;18.124;2022-12-24T01:31:45;-2.80;99.90
10722;DHT22;5412;59.450;18.124;2022-12-24T01:34:11;-2.80;99.90
10722;DHT22;5412;59.450;18.124;2022-12-24T01:36:37;-2.90;99.90
10722;DHT22;5412;59.450;18.124;2022-12-24T01:39:03;-2.90;99.90
10722;DHT22;5412;59.450;18.124;2022-12-24T01:41:30;-2.90;99.90
10722;DHT22;5412;59.450;18.124;2022-12-24T01:44:24;-2.80;99.90
10722;DHT22;5412;59.450;18.124;2022-12-24T01:46:53;-2.90;99.90
10722;DHT22;5412;59.450;18.124;2022-12-24T01:49:21;-2.90;99.90
10722;DHT22;5412;59.450;18.124;2022-12-24T01:51:57;-3.00;99.90
10722;DHT22;5412;59.450;18.124;2022-12-24T01:54:30;-3.00;99.90
10722;DHT22;5412;59.450;18.124;2022-12-24T01:57:08;-2.80;99.90
10722;DHT22;5412;59.450;18.124;2022-12-24T01:59:36;-2.90;99.90
10722;DHT22;5412;59.450;18.124;2022-12-24T02:02:03;-2.90;99.90
10722;DHT22;5412;59.450;18.124;2022-12-24T02:04:41;-3.00;99.90
10722;DHT22;5412;59.450;18.124;2022-12-24T02:07:08;-3.00;99.90
10722;DHT22;5412;59.450;18.124;2022-12-24T02:09:35;-3.00;99.90
10722;DHT22;5412;59.450;18.124;2022-12-24T02:12:02;-2.90;99.90
10722;DHT22;5412;59.450;18.124;2022-12-24T02:14:29;-2.90;99.90
10722;DHT22;5412;59.450;18.124;2022-12-24T02:28:45;-2.80;99.90
10722;DHT22;5412;59.450;18.124;2022-12-24T02:31:24;-2.80;99.90
10722;DHT22;5412;59.450;18.124;2022-12-24T02:33:53;-2.80;99.90
10722;DHT22;5412;59.450;18.124;2022-12-24T02:36:34;-2.80;99.90
10722;DHT22;5412;59.450;18.124;2022-12-24T02:39:04;-2.80;99.90
10722;DHT22;5412;59.450;18.124;2022-12-24T02:41:35;-2.90;99.90
10722;DHT22;5412;59.450;18.124;2022-12-24T02:44:24;-2.80;99.90
10722;DHT22;5412;59.450;18.124;2022-12-24T02:46:51;-2.90;99.90
10722;DHT22;5412;59.450;18.124;2022-12-24T02:49:17;-3.00;99.90
10722;DHT22;5412;59.450;18.124;2022-12-24T02:51:43;-3.00;99.90
10722;DHT22;5412;59.450;18.124;2022-12-24T02:54:10;-3.00;99.90
10722;DHT22;5412;59.450;18.124;2022-12-24T02:56:41;-3.10;99.90
10722;DHT22;5412;59.450;18.124;2022-12-24T03:02:16;-3.10;99.90
10722;DHT22;5412;59.450;18.124;2022-12-24T03:04:47;-3.10;99.90
10722;DHT22;5412;59.450;18.124;2022-12-24T03:07:39;-2.90;99.90
10722;DHT22;5412;59.450;18.124;2022-12-24T03:10:28;-2.90;99.90
10722;DHT22;5412;59.450;18.124;2022-12-24T03:12:59;-3.10;99.90
10722;DHT22;5412;59.450;18.124;2022-12-24T03:15:28;-3.10;99.90
10722;DHT22;5412;59.450;18.124;2022-12-24T03:17:59;-3.00;99.90
10722;DHT22;5412;59.450;18.124;2022-12-24T03:23:17;-3.10;99.90
10722;DHT22;5412;59.450;18.124;2022-12-24T03:25:44;-3.10;99.90
10722;DHT22;5412;59.450;18.124;2022-12-24T03:28:12;-3.10;99.90
10722;DHT22;5412;59.450;18.124;2022-12-24T03:30:41;-3.10;99.90
10722;DHT22;5412;59.450;18.124;2022-12-24T03:33:07;-3.00;99.90
10722;DHT22;5412;59.450;18.124;2022-12-24T03:35:32;-3.10;99.90
10722;DHT22;5412;59.450;18.124;2022-12-24T03:37:58;-3.10;99.90
10722;DHT22;5412;59.450;18.124;2022-12-24T03:40:24;-3.00;99.90
10722;DHT22;5412;59.450;18.124;2022-12-24T03:42:50;-3.10;99.90
10722;DHT22;5412;59.450;18.124;2022-12-24T03:45:15;-3.00;99.90
10722;DHT22;5412;59.450;18.124;2022-12-24T03:47:41;-3.00;99.90
10722;DHT22;5412;59.450;18.124;2022-12-24T03:50:07;-3.00;99.90
10722;DHT22;5412;59.450;18.124;2022-12-24T03:52:33;-2.90;99.90
10722;DHT22;5412;59.450;18.124;2022-12-24T03:54:59;-2.90;99.90
10722;DHT22;5412;59.450;18.124;2022-12-24T03:57:24;-2.80;99.90
10722;DHT22;5412;59.450;18.124;2022-12-24T03:59:50;-2.90;99.90
10722;DHT22;5412;59.450;18.124;2022-12-24T04:02:16;-2.90;99.90
10722;DHT22;5412;59.450;18.124;2022-12-24T04:04:42;-2.90;99.90
10722;DHT22;5412;59.450;18.124;2022-12-24T04:07:07;-2.90;99.90
10722;DHT22;5412;59.450;18.124;2022-12-24T04:09:33;-2.80;99.90
10722;DHT22;5412;59.450;18.124;2022-12-24T04:11:59;-2.80;99.90
10722;DHT22;5412;59.450;18.124;2022-12-24T04:14:25;-2.80;99.90
10722;DHT22;5412;59.450;18.124;2022-12-24T04:16:50;-2.80;99.90
10722;DHT22;5412;59.450;18.124;2022-12-24T04:19:16;-2.90;99.90
10722;DHT22;5412;59.450;18.124;2022-12-24T04:21:42;-3.00;99.90
10722;DHT22;5412;59.450;18.124;2022-12-24T04:24:07;-3.00;99.90
10722;DHT22;5412;59.450;18.124;2022-12-24T04:26:33;-3.00;99.90
10722;DHT22;5412;59.450;18.124;2022-12-24T04:28:59;-3.00;99.90
10722;DHT22;5412;59.450;18.124;2022-12-24T04:31:25;-3.00;99.90
10722;DHT22;5412;59.450;18.124;2022-12-24T04:33:51;-3.10;99.90
10722;DHT22;5412;59.450;18.124;2022-12-24T04:36:19;-3.10;99.90
10722;DHT22;5412;59.450;18.124;2022-12-24T04:38:45;-3.10;99.90
10722;DHT22;5412;59.450;18.124;2022-12-24T04:41:17;-3.00;99.90
10722;DHT22;5412;59.450;18.124;2022-12-24T04:43:43;-3.10;99.90
10722;DHT22;5412;59.450;18.124;2022-12-24T04:46:15;-3.20;99.90
10722;DHT22;5412;59.450;18.124;2022-12-24T04:48:44;-3.10;99.90
10722;DHT22;5412;59.450;18.124;2022-12-24T04:51:10;-3.10;99.90
10722;DHT22;5412;59.450;18.124;2022-12-24T04:53:37;-3.10;99.90
10722;DHT22;5412;59.450;18.124;2022-12-24T04:56:06;-3.10;99.90
10722;DHT22;5412;59.450;18.124;2022-12-24T04:58:32;-3.00;99.90
10722;DHT22;5412;59.450;18.124;2022-12-24T05:01:03;-3.00;99.90
10722;DHT22;5412;59.450;18.124;2022-12-24T05:03:29;-3.00;99.90
10722;DHT22;5412;59.450;18.124;2022-12-24T05:06:07;-3.00;99.90
10722;DHT22;5412;59.450;18.124;2022-12-24T05:08:33;-3.10;99.90
10722;DHT22;5412;59.450;18.124;2022-12-24T05:11:00;-3.00;99.90
10722;DHT22;5412;59.450;18.124;2022-12-24T05:13:26;-3.10;99.90
10722;DHT22;5412;59.450;18.124;2022-12-24T05:15:53;-3.10;99.90
10722;DHT22;5412;59.450;18.124;2022-12-24T05:18:19;-3.10;99.90
10722;DHT22;5412;59.450;18.124;2022-12-24T05:20:45;-3.00;99.90
10722;DHT22;5412;59.450;18.124;2022-12-24T05:23:19;-3.10;99.90
10722;DHT22;5412;59.450;18.124;2022-12-24T05:26:04;-3.00;99.90
10722;DHT22;5412;59.450;18.124;2022-12-24T05:28:47;-3.00;99.90
10722;DHT22;5412;59.450;18.124;2022-12-24T05:31:13;-3.00;99.90
10722;DHT22;5412;59.450;18.124;2022-12-24T05:33:38;-3.00;99.90
10722;DHT22;5412;59.450;18.124;2022-12-24T05:36:04;-2.90;99.90
10722;DHT22;5412;59.450;18.124;2022-12-24T05:38:30;-2.90;99.90
10722;DHT22;5412;59.450;18.124;2022-12-24T05:40:56;-3.00;99.90
10722;DHT22;5412;59.450;18.124;2022-12-24T05:43:22;-3.00;99.90
10722;DHT22;5412;59.450;18.124;2022-12-24T05:45:47;-3.00;99.90
10722;DHT22;5412;59.450;18.124;2022-12-24T05:48:13;-2.90;99.90
10722;DHT22;5412;59.450;18.124;2022-12-24T05:50:39;-2.90;99.90
10722;DHT22;5412;59.450;18.124;2022-12-24T05:53:06;-2.90;99.90
10722;DHT22;5412;59.450;18.124;2022-12-24T05:55:32;-2.80;99.90
10722;DHT22;5412;59.450;18.124;2022-12-24T05:57:58;-2.80;99.90
10722;DHT22;5412;59.450;18.124;2022-12-24T06:00:23;-2.80;99.90
10722;DHT22;5412;59.450;18.124;2022-12-24T06:02:49;-2.80;99.90
10722;DHT22;5412;59.450;18.124;2022-12-24T06:05:15;-2.80;99.90
10722;DHT22;5412;59.450;18.124;2022-12-24T06:07:41;-2.80;99.90
10722;DHT22;5412;59.450;18.124;2022-12-24T06:10:07;-2.90;99.90
10722;DHT22;5412;59.450;18.124;2022-12-24T06:12:33;-2.80;99.90
10722;DHT22;5412;59.450;18.124;2022-12-24T06:14:59;-2.80;99.90
10722;DHT22;5412;59.450;18.124;2022-12-24T06:17:25;-3.00;99.90
10722;DHT22;5412;59.450;18.124;2022-12-24T06:19:50;-2.90;99.90
10722;DHT22;5412;59.450;18.124;2022-12-24T06:22:16;-3.00;99.90
10722;DHT22;5412;59.450;18.124;2022-12-24T06:24:42;-2.90;99.90
10722;DHT22;5412;59.450;18.124;2022-12-24T06:27:08;-2.90;99.90
10722;DHT22;5412;59.450;18.124;2022-12-24T06:29:33;-3.00;99.90
10722;DHT22;5412;59.450;18.124;2022-12-24T06:31:59;-2.90;99.90
10722;DHT22;5412;59.450;18.124;2022-12-24T06:34:25;-2.80;99.90
10722;DHT22;5412;59.450;18.124;2022-12-24T06:36:51;-2.80;99.90
10722;DHT22;5412;59.450;18.124;2022-12-24T06:39:16;-2.90;99.90
10722;DHT22;5412;59.450;18.124;2022-12-24T06:41:42;-2.90;99.90
10722;DHT22;5412;59.450;18.124;2022-12-24T06:44:08;-2.80;99.90
10722;DHT22;5412;59.450;18.124;2022-12-24T06:46:34;-2.80;99.90
10722;DHT22;5412;59.450;18.124;2022-12-24T06:49:00;-2.70;99.90
10722;DHT22;5412;59.450;18.124;2022-12-24T06:51:26;-2.80;99.90
10722;DHT22;5412;59.450;18.124;2022-12-24T06:53:52;-2.90;99.90
10722;DHT22;5412;59.450;18.124;2022-12-24T06:56:19;-2.80;99.90
10722;DHT22;5412;59.450;18.124;2022-12-24T06:58:45;-2.80;99.90
10722;DHT22;5412;59.450;18.124;2022-12-24T07:01:13;-2.90;99.90
10722;DHT22;5412;59.450;18.124;2022-12-24T07:03:39;-2.80;99.90
10722;DHT22;5412;59.450;18.124;2022-12-24T07:06:05;-2.80;99.90
10722;DHT22;5412;59.450;18.124;2022-12-24T07:08:31;-2.70;99.90
10722;DHT22;5412;59.450;18.124;2022-12-24T07:10:58;-2.70;99.90
10722;DHT22;5412;59.450;18.124;2022-12-24T07:13:24;-2.70;99.90
10722;DHT22;5412;59.450;18.124;2022-12-24T07:16:00;-2.70;99.90
10722;DHT22;5412;59.450;18.124;2022-12-24T07:18:27;-2.70;99.90
10722;DHT22;5412;59.450;18.124;2022-12-24T07:20:53;-2.80;99.90
10722;DHT22;5412;59.450;18.124;2022-12-24T07:23:18;-2.80;99.90
10722;DHT22;5412;59.450;18.124;2022-12-24T07:25:44;-2.90;99.90
10722;DHT22;5412;59.450;18.124;2022-12-24T07:28:10;-2.90;99.90
10722;DHT22;5412;59.450;18.124;2022-12-24T07:30:36;-2.80;99.90
10722;DHT22;5412;59.450;18.124;2022-12-24T07:33:02;-2.80;99.90
10722;DHT22;5412;59.450;18.124;2022-12-24T07:35:27;-2.90;99.90
10722;DHT22;5412;59.450;18.124;2022-12-24T07:37:53;-2.90;99.90
10722;DHT22;5412;59.450;18.124;2022-12-24T07:40:19;-3.00;99.90
10722;DHT22;5412;59.450;18.124;2022-12-24T07:42:44;-2.90;99.90
10722;DHT22;5412;59.450;18.124;2022-12-24T07:45:10;-2.90;99.90
10722;DHT22;5412;59.450;18.124;2022-12-24T07:47:36;-2.80;99.90
10722;DHT22;5412;59.450;18.124;2022-12-24T07:50:04;-2.90;99.90
10722;DHT22;5412;59.450;18.124;2022-12-24T07:52:30;-2.90;99.90
10722;DHT22;5412;59.450;18.124;2022-12-24T07:54:55;-2.90;99.90
10722;DHT22;5412;59.450;18.124;2022-12-24T07:57:21;-2.90;99.90
10722;DHT22;5412;59.450;18.124;2022-12-24T07:59:47;-2.80;99.90
10722;DHT22;5412;59.450;18.124;2022-12-24T08:02:13;-2.80;99.90
10722;DHT22;5412;59.450;18.124;2022-12-24T08:04:38;-2.70;99.90
10722;DHT22;5412;59.450;18.124;2022-12-24T08:07:05;-2.70;99.90
10722;DHT22;5412;59.450;18.124;2022-12-24T08:09:32;-2.60;99.90
10722;DHT22;5412;59.450;18.124;2022-12-24T08:11:58;-2.60;99.90
10722;DHT22;5412;59.450;18.124;2022-12-24T08:14:24;-2.70;99.90
10722;DHT22;5412;59.450;18.124;2022-12-24T08:16:50;-2.60;99.90
10722;DHT22;5412;59.450;18.124;2022-12-24T08:19:15;-2.60;99.90
10722;DHT22;5412;59.450;18.124;2022-12-24T08:21:41;-2.60;99.90
10722;DHT22;5412;59.450;18.124;2022-12-24T08:24:07;-2.60;99.90
10722;DHT22;5412;59.450;18.124;2022-12-24T08:26:33;-2.50;99.90
10722;DHT22;5412;59.450;18.124;2022-12-24T08:28:59;-2.50;99.90
10722;DHT22;5412;59.450;18.124;2022-12-24T08:31:24;-2.50;99.90
10722;DHT22;5412;59.450;18.124;2022-12-24T08:33:50;-2.40;99.90
10722;DHT22;5412;59.450;18.124;2022-12-24T08:36:16;-2.30;99.90
10722;DHT22;5412;59.450;18.124;2022-12-24T08:38:42;-2.30;99.90
10722;DHT22;5412;59.450;18.124;2022-12-24T08:41:07;-2.30;99.90
10722;DHT22;5412;59.450;18.124;2022-12-24T08:43:33;-2.40;99.90
10722;DHT22;5412;59.450;18.124;2022-12-24T08:46:04;-2.30;99.90
10722;DHT22;5412;59.450;18.124;2022-12-24T08:48:31;-2.30;99.90
10722;DHT22;5412;59.450;18.124;2022-12-24T08:50:58;-2.20;99.90
10722;DHT22;5412;59.450;18.124;2022-12-24T08:53:23;-2.20;99.90
10722;DHT22;5412;59.450;18.124;2022-12-24T08:55:49;-2.20;99.90
10722;DHT22;5412;59.450;18.124;2022-12-24T08:58:15;-2.20;99.90
10722;DHT22;5412;59.450;18.124;2022-12-24T09:00:41;-2.10;99.90
10722;DHT22;5412;59.450;18.124;2022-12-24T09:03:06;-2.10;99.90
10722;DHT22;5412;59.450;18.124;2022-12-24T09:05:32;-2.10;99.90
10722;DHT22;5412;59.450;18.124;2022-12-24T09:07:58;-2.10;99.90
10722;DHT22;5412;59.450;18.124;2022-12-24T09:10:23;-2.00;99.90
10722;DHT22;5412;59.450;18.124;2022-12-24T09:12:49;-2.00;99.90
10722;DHT22;5412;59.450;18.124;2022-12-24T09:15:15;-2.00;99.90
10722;DHT22;5412;59.450;18.124;2022-12-24T09:17:41;-2.20;99.90
10722;DHT22;5412;59.450;18.124;2022-12-24T09:20:08;-2.30;99.90
10722;DHT22;5412;59.450;18.124;2022-12-24T09:22:35;-2.10;99.90
10722;DHT22;5412;59.450;18.124;2022-12-24T09:25:01;-2.10;99.90
10722;DHT22;5412;59.450;18.124;2022-12-24T09:27:30;-2.10;99.90
10722;DHT22;5412;59.450;18.124;2022-12-24T09:29:56;-2.00;99.90
10722;DHT22;5412;59.450;18.124;2022-12-24T09:32:21;-2.30;99.90
10722;DHT22;5412;59.450;18.124;2022-12-24T09:34:47;-2.40;99.90
10722;DHT22;5412;59.450;18.124;2022-12-24T09:37:13;-2.40;99.90
10722;DHT22;5412;59.450;18.124;2022-12-24T09:39:39;-2.50;99.90
10722;DHT22;5412;59.450;18.124;2022-12-24T09:44:35;-2.10;99.90
10722;DHT22;5412;59.450;18.124;2022-12-24T09:49:53;-2.10;99.90
10722;DHT22;5412;59.450;18.124;2022-12-24T09:52:35;-2.00;99.90
10722;DHT22;5412;59.450;18.124;2022-12-24T09:55:22;-1.90;99.90
10722;DHT22;5412;59.450;18.124;2022-12-24T09:57:52;-1.70;99.90
10722;DHT22;5412;59.450;18.124;2022-12-24T10:00:28;-1.70;99.90
10722;DHT22;5412;59.450;18.124;2022-12-24T10:02:54;-1.70;99.90
10722;DHT22;5412;59.450;18.124;2022-12-24T10:11:01;-1.70;99.90
10722;DHT22;5412;59.450;18.124;2022-12-24T10:16:31;-1.80;99.90
10722;DHT22;5412;59.450;18.124;2022-12-24T10:19:02;-1.70;99.90
10722;DHT22;5412;59.450;18.124;2022-12-24T10:21:39;-1.80;99.90
10722;DHT22;5412;59.450;18.124;2022-12-24T10:24:19;-1.70;99.90
10722;DHT22;5412;59.450;18.124;2022-12-24T10:27:01;-1.70;99.90
10722;DHT22;5412;59.450;18.124;2022-12-24T10:29:32;-1.70;99.90
10722;DHT22;5412;59.450;18.124;2022-12-24T10:34:42;-1.80;99.90
10722;DHT22;5412;59.450;18.124;2022-12-24T10:37:26;-1.70;99.90
10722;DHT22;5412;59.450;18.124;2022-12-24T10:39:54;-1.80;99.90
10722;DHT22;5412;59.450;18.124;2022-12-24T10:42:22;-1.90;99.90
10722;DHT22;5412;59.450;18.124;2022-12-24T10:44:54;-2.00;99.90
10722;DHT22;5412;59.450;18.124;2022-12-24T10:47:21;-2.00;99.90
10722;DHT22;5412;59.450;18.124;2022-12-24T10:50:02;-2.00;99.90
10722;DHT22;5412;59.450;18.124;2022-12-24T10:52:32;-2.00;99.90
10722;DHT22;5412;59.450;18.124;2022-12-24T10:57:32;-1.80;99.90
10722;DHT22;5412;59.450;18.124;2022-12-24T10:59:58;-1.80;99.90
10722;DHT22;5412;59.450;18.124;2022-12-24T11:02:30;-1.80;99.90
10722;DHT22;5412;59.450;18.124;2022-12-24T11:04:57;-1.80;99.90
10722;DHT22;5412;59.450;18.124;2022-12-24T11:07:28;-1.90;99.90
10722;DHT22;5412;59.450;18.124;2022-12-24T11:12:29;-1.60;99.90
10722;DHT22;5412;59.450;18.124;2022-12-24T11:15:21;-1.40;99.90
10722;DHT22;5412;59.450;18.124;2022-12-24T11:20:28;-1.30;99.90
10722;DHT22;5412;59.450;18.124;2022-12-24T11:22:55;-1.10;99.90
10722;DHT22;5412;59.450;18.124;2022-12-24T11:25:27;-1.10;99.90
10722;DHT22;5412;59.450;18.124;2022-12-24T11:27:54;-0.90;99.90
10722;DHT22;5412;59.450;18.124;2022-12-24T11:30:27;-0.90;99.90
10722;DHT22;5412;59.450;18.124;2022-12-24T11:35:26;-0.90;99.90
10722;DHT22;5412;59.450;18.124;2022-12-24T11:40:27;-0.70;99.90
10722;DHT22;5412;59.450;18.124;2022-12-24T11:42:59;-0.80;99.90
10722;DHT22;5412;59.450;18.124;2022-12-24T11:45:27;-0.80;99.90
10722;DHT22;5412;59.450;18.124;2022-12-24T11:47:54;-0.70;99.90
10722;DHT22;5412;59.450;18.124;2022-12-24T11:50:34;-0.70;99.90
10722;DHT22;5412;59.450;18.124;2022-12-24T12:03:49;-0.40;99.90
10722;DHT22;5412;59.450;18.124;2022-12-24T12:08:50;-0.40;99.90
10722;DHT22;5412;59.450;18.124;2022-12-24T12:11:17;-0.30;99.90
10722;DHT22;5412;59.450;18.124;2022-12-24T12:13:44;-0.30;99.90
10722;DHT22;5412;59.450;18.124;2022-12-24T12:19:19;-0.30;99.90
10722;DHT22;5412;59.450;18.124;2022-12-24T12:21:48;-0.30;99.90
10722;DHT22;5412;59.450;18.124;2022-12-24T12:24:38;-0.40;99.90
10722;DHT22;5412;59.450;18.124;2022-12-24T12:29:59;-0.60;99.90
10722;DHT22;5412;59.450;18.124;2022-12-24T12:32:50;-0.60;99.90
10722;DHT22;5412;59.450;18.124;2022-12-24T12:35:33;-0.50;99.90
10722;DHT22;5412;59.450;18.124;2022-12-24T12:38:04;-0.60;99.90
10722;DHT22;5412;59.450;18.124;2022-12-24T12:43:59;-0.50;99.90
10722;DHT22;5412;59.450;18.124;2022-12-24T12:49:15;-0.40;99.90
10722;DHT22;5412;59.450;18.124;2022-12-24T12:54:43;-0.40;99.90
10722;DHT22;5412;59.450;18.124;2022-12-24T12:57:15;-0.30;99.90
10722;DHT22;5412;59.450;18.124;2022-12-24T13:13:39;-0.50;99.90
10722;DHT22;5412;59.450;18.124;2022-12-24T13:21:50;-0.60;99.90
10722;DHT22;5412;59.450;18.124;2022-12-24T13:24:21;-0.70;99.90
10722;DHT22;5412;59.450;18.124;2022-12-24T13:29:50;-0.90;99.90
10722;DHT22;5412;59.450;18.124;2022-12-24T13:34:50;-1.00;99.90
10722;DHT22;5412;59.450;18.124;2022-12-24T13:37:31;-1.10;99.90
10722;DHT22;5412;59.450;18.124;2022-12-24T13:50:53;-1.20;99.90
10722;DHT22;5412;59.450;18.124;2022-12-24T13:56:05;-1.20;99.90
10722;DHT22;5412;59.450;18.124;2022-12-24T13:58:32;-1.30;99.90
10722;DHT22;5412;59.450;18.124;2022-12-24T14:01:01;-1.40;99.90
10722;DHT22;5412;59.450;18.124;2022-12-24T14:03:46;-1.50;99.90
10722;DHT22;5412;59.450;18.124;2022-12-24T14:06:29;-1.50;99.90
10722;DHT22;5412;59.450;18.124;2022-12-24T14:09:11;-1.60;99.90
10722;DHT22;5412;59.450;18.124;2022-12-24T14:16:56;-1.70;99.90
10722;DHT22;5412;59.450;18.124;2022-12-24T14:19:25;-1.80;99.90
10722;DHT22;5412;59.450;18.124;2022-12-24T14:24:45;-1.80;99.90
10722;DHT22;5412;59.450;18.124;2022-12-24T14:27:18;-2.20;99.90
10722;DHT22;5412;59.450;18.124;2022-12-24T14:30:06;-2.30;99.90
10722;DHT22;5412;59.450;18.124;2022-12-24T14:32:38;-2.30;99.90
10722;DHT22;5412;59.450;18.124;2022-12-24T14:35:14;-2.20;99.90
10722;DHT22;5412;59.450;18.124;2022-12-24T14:37:57;-2.30;99.90
10722;DHT22;5412;59.450;18.124;2022-12-24T14:40:29;-2.20;99.90
10722;DHT22;5412;59.450;18.124;2022-12-24T14:48:51;-2.20;99.90
10722;DHT22;5412;59.450;18.124;2022-12-24T14:56:43;-2.30;99.90
10722;DHT22;5412;59.450;18.124;2022-12-24T14:59:16;-2.30;99.90
10722;DHT22;5412;59.450;18.124;2022-12-24T15:01:43;-2.30;99.90
10722;DHT22;5412;59.450;18.124;2022-12-24T15:09:29;-2.00;99.90
10722;DHT22;5412;59.450;18.124;2022-12-24T15:11:58;-1.90;99.90
10722;DHT22;5412;59.450;18.124;2022-12-24T15:14:26;-1.90;99.90
10722;DHT22;5412;59.450;18.124;2022-12-24T15:16:54;-1.90;99.90
10722;DHT22;5412;59.450;18.124;2022-12-24T15:19:25;-1.80;99.90
10722;DHT22;5412;59.450;18.124;2022-12-24T15:21:51;-1.90;99.90
10722;DHT22;5412;59.450;18.124;2022-12-24T15:24:34;-2.10;99.90
10722;DHT22;5412;59.450;18.124;2022-12-24T15:27:02;-2.10;99.90
10722;DHT22;5412;59.450;18.124;2022-12-24T15:29:41;-2.20;99.90
10722;DHT22;5412;59.450;18.124;2022-12-24T15:32:12;-2.10;99.90
10722;DHT22;5412;59.450;18.124;2022-12-24T15:34:46;-2.10;99.90
10722;DHT22;5412;59.450;18.124;2022-12-24T15:37:33;-2.10;99.90
10722;DHT22;5412;59.450;18.124;2022-12-24T15:40:09;-2.10;99.90
10722;DHT22;5412;59.450;18.124;2022-12-24T15:42:43;-2.00;99.90
10722;DHT22;5412;59.450;18.124;2022-12-24T15:45:15;-1.80;99.90
10722;DHT22;5412;59.450;18.124;2022-12-24T15:48:08;-1.80;99.90
10722;DHT22;5412;59.450;18.124;2022-12-24T15:50:43;-1.80;99.90
10722;DHT22;5412;59.450;18.124;2022-12-24T15:53:16;-1.80;99.90
10722;DHT22;5412;59.450;18.124;2022-12-24T15:55:45;-1.90;99.90
10722;DHT22;5412;59.450;18.124;2022-12-24T16:03:30;-2.00;99.90
10722;DHT22;5412;59.450;18.124;2022-12-24T16:06:03;-1.90;99.90
10722;DHT22;5412;59.450;18.124;2022-12-24T16:08:34;-2.00;99.90
10722;DHT22;5412;59.450;18.124;2022-12-24T16:11:11;-2.00;99.90
10722;DHT22;5412;59.450;18.124;2022-12-24T16:13:42;-2.10;99.90
10722;DHT22;5412;59.450;18.124;2022-12-24T16:16:11;-2.20;99.90
10722;DHT22;5412;59.450;18.124;2022-12-24T16:18:39;-2.00;99.90
10722;DHT22;5412;59.450;18.124;2022-12-24T16:21:06;-2.00;99.90
10722;DHT22;5412;59.450;18.124;2022-12-24T16:23:37;-2.00;99.90
10722;DHT22;5412;59.450;18.124;2022-12-24T16:26:04;-2.10;99.90
10722;DHT22;5412;59.450;18.124;2022-12-24T16:28:30;-2.10;99.90
10722;DHT22;5412;59.450;18.124;2022-12-24T16:30:56;-2.30;99.90
10722;DHT22;5412;59.450;18.124;2022-12-24T16:33:22;-2.30;99.90
10722;DHT22;5412;59.450;18.124;2022-12-24T16:35:49;-2.20;99.90
10722;DHT22;5412;59.450;18.124;2022-12-24T16:38:15;-2.00;99.90
10722;DHT22;5412;59.450;18.124;2022-12-24T16:40:42;-1.90;99.90
10722;DHT22;5412;59.450;18.124;2022-12-24T16:43:09;-2.00;99.90
10722;DHT22;5412;59.450;18.124;2022-12-24T16:46:00;-2.10;99.90
10722;DHT22;5412;59.450;18.124;2022-12-24T16:48:26;-2.00;99.90
10722;DHT22;5412;59.450;18.124;2022-12-24T16:50:52;-2.00;99.90
10722;DHT22;5412;59.450;18.124;2022-12-24T16:53:20;-2.10;99.90
10722;DHT22;5412;59.450;18.124;2022-12-24T16:55:46;-2.00;99.90
10722;DHT22;5412;59.450;18.124;2022-12-24T16:58:15;-2.10;99.90
10722;DHT22;5412;59.450;18.124;2022-12-24T17:00:42;-2.00;99.90
10722;DHT22;5412;59.450;18.124;2022-12-24T17:03:09;-2.00;99.90
10722;DHT22;5412;59.450;18.124;2022-12-24T17:05:39;-2.00;99.90
10722;DHT22;5412;59.450;18.124;2022-12-24T17:08:06;-2.30;99.90
10722;DHT22;5412;59.450;18.124;2022-12-24T17:10:32;-2.20;99.90
10722;DHT22;5412;59.450;18.124;2022-12-24T17:12:58;-2.30;99.90
10722;DHT22;5412;59.450;18.124;2022-12-24T17:15:24;-2.30;99.90
10722;DHT22;5412;59.450;18.124;2022-12-24T17:17:50;-2.40;99.90
10722;DHT22;5412;59.450;18.124;2022-12-24T17:20:15;-2.40;99.90
10722;DHT22;5412;59.450;18.124;2022-12-24T17:22:41;-2.30;99.90
10722;DHT22;5412;59.450;18.124;2022-12-24T17:25:09;-2.30;99.90
10722;DHT22;5412;59.450;18.124;2022-12-24T17:27:36;-2.30;99.90
10722;DHT22;5412;59.450;18.124;2022-12-24T17:30:02;-2.30;99.90
10722;DHT22;5412;59.450;18.124;2022-12-24T17:32:28;-2.20;99.90
10722;DHT22;5412;59.450;18.124;2022-12-24T17:34:53;-2.30;99.90
10722;DHT22;5412;59.450;18.124;2022-12-24T17:37:19;-2.30;99.90
10722;DHT22;5412;59.450;18.124;2022-12-24T17:39:45;-2.30;99.90
10722;DHT22;5412;59.450;18.124;2022-12-24T17:42:11;-2.30;99.90
10722;DHT22;5412;59.450;18.124;2022-12-24T17:44:36;-2.30;99.90
10722;DHT22;5412;59.450;18.124;2022-12-24T17:47:03;-2.40;99.90
10722;DHT22;5412;59.450;18.124;2022-12-24T17:49:30;-2.40;99.90
10722;DHT22;5412;59.450;18.124;2022-12-24T17:51:56;-2.60;99.90
10722;DHT22;5412;59.450;18.124;2022-12-24T17:54:22;-2.70;99.90
10722;DHT22;5412;59.450;18.124;2022-12-24T17:56:48;-2.50;99.90
10722;DHT22;5412;59.450;18.124;2022-12-24T17:59:14;-2.40;99.90
10722;DHT22;5412;59.450;18.124;2022-12-24T18:01:40;-2.30;99.90
10722;DHT22;5412;59.450;18.124;2022-12-24T18:04:05;-2.20;99.90